Time;durP1;ratioP1;P1;durP2;ratioP2;P2;SDS_P1;SDS_P2;PMS_P1;PMS_P2;Temp;Humidity;BMP_temperature;BMP_pressure;BME280_temperature;BME280_humidity;BME280_pressure;Samples;Min_cycle;Max_cycle;Signal;HPM_P1;HPM_P2
2022/07/23 00:01:44;;;;;;;1.63;1.00;;;16.50;99.90;;;;;;5099347;28;20204;-52
2022/07/23 00:04:11;;;;;;;3.83;1.17;;;16.40;99.90;;;;;;5101244;28;20193;-52
2022/07/23 00:06:38;;;;;;;2.00;0.90;;;16.30;99.90;;;;;;5102865;28;20363;-55
2022/07/23 00:09:06;;;;;;;1.60;1.00;;;16.30;99.90;;;;;;5094400;28;20209;-54
2022/07/23 00:11:33;;;;;;;1.70;0.90;;;16.30;99.90;;;;;;5112385;28;20193;-52
2022/07/23 00:14:00;;;;;;;3.53;1.20;;;16.30;99.90;;;;;;5101078;28;20223;-54
2022/07/23 00:16:27;;;;;;;1.93;1.03;;;16.20;99.90;;;;;;5111536;28;20228;-53
2022/07/23 00:18:54;;;;;;;3.27;0.70;;;16.30;99.90;;;;;;5120345;27;20204;-50
2022/07/23 00:21:21;;;;;;;2.57;0.97;;;16.20;99.90;;;;;;5111669;28;20835;-50
2022/07/23 00:23:48;;;;;;;1.27;0.90;;;16.30;99.90;;;;;;5095304;28;20198;-50
2022/07/23 00:26:16;;;;;;;1.20;1.10;;;16.20;99.90;;;;;;5111704;27;20219;-53
2022/07/23 00:28:43;;;;;;;3.03;1.03;;;16.30;99.90;;;;;;5103870;28;20622;-53
2022/07/23 00:31:10;;;;;;;2.47;0.80;;;16.20;99.90;;;;;;5100490;28;20201;-54
2022/07/23 00:33:37;;;;;;;1.37;0.70;;;16.20;99.90;;;;;;5115461;28;20277;-52
2022/07/23 00:36:05;;;;;;;3.10;1.30;;;16.20;99.90;;;;;;5122286;27;20219;-55
2022/07/23 00:38:32;;;;;;;0.77;0.67;;;16.30;99.90;;;;;;5119402;28;20196;-52
2022/07/23 00:40:59;;;;;;;1.77;0.80;;;16.20;99.90;;;;;;5107028;27;20208;-51
2022/07/23 00:43:27;;;;;;;1.57;1.00;;;16.20;99.90;;;;;;5108986;27;20197;-54
2022/07/23 00:45:54;;;;;;;1.80;0.90;;;16.20;99.90;;;;;;5111001;27;20224;-49
2022/07/23 00:48:21;;;;;;;0.93;0.80;;;16.20;99.90;;;;;;5114544;27;20192;-53
2022/07/23 00:50:47;;;;;;;1.63;0.67;;;16.20;99.90;;;;;;5119964;27;20193;-52
2022/07/23 00:53:15;;;;;;;1.40;0.90;;;16.20;99.90;;;;;;5116549;27;20649;-55
2022/07/23 00:55:42;;;;;;;1.17;1.00;;;16.20;99.90;;;;;;5099200;27;20224;-52
2022/07/23 00:58:10;;;;;;;5.70;1.30;;;16.10;99.90;;;;;;5114715;27;20189;-53
2022/07/23 01:00:39;;;;;;;4.13;1.10;;;16.10;99.90;;;;;;5100794;27;20214;-55
2022/07/23 01:03:07;;;;;;;2.30;0.70;;;16.10;99.90;;;;;;5113665;27;20194;-55
2022/07/23 01:05:33;;;;;;;4.40;0.97;;;16.00;99.90;;;;;;5118725;27;20185;-49
2022/07/23 01:08:01;;;;;;;5.47;1.20;;;16.00;99.90;;;;;;5114707;27;20684;-52
2022/07/23 01:10:32;;;;;;;2.60;1.10;;;16.00;99.90;;;;;;5091068;27;20201;-49
2022/07/23 01:12:59;;;;;;;4.40;1.10;;;16.00;99.90;;;;;;5113766;27;20185;-53
2022/07/23 01:15:26;;;;;;;2.57;1.50;;;15.90;99.90;;;;;;5096396;27;20229;-53
2022/07/23 01:17:55;;;;;;;4.33;1.00;;;15.90;99.90;;;;;;5110168;27;20201;-52
2022/07/23 01:20:23;;;;;;;2.83;1.20;;;15.90;99.90;;;;;;5121137;27;20185;-50
2022/07/23 01:22:51;;;;;;;3.17;1.00;;;15.80;99.90;;;;;;5115822;27;20201;-51
2022/07/23 01:25:19;;;;;;;3.10;0.80;;;15.80;99.90;;;;;;5106123;27;20194;-55
2022/07/23 01:27:55;;;;;;;2.93;0.70;;;15.80;99.90;;;;;;5099677;27;20870;-53
2022/07/23 01:30:22;;;;;;;6.30;1.80;;;15.80;99.90;;;;;;5105579;27;20284;-51
2022/07/23 01:32:49;;;;;;;4.17;1.50;;;15.80;99.90;;;;;;5112691;27;20207;-50
2022/07/23 01:35:16;;;;;;;1.90;0.90;;;15.70;99.90;;;;;;5115407;27;20212;-52
2022/07/23 01:37:43;;;;;;;4.33;1.30;;;15.70;99.90;;;;;;5113690;27;20735;-55
2022/07/23 01:40:12;;;;;;;2.10;0.80;;;15.60;99.90;;;;;;5107006;27;20202;-55
2022/07/23 01:42:39;;;;;;;1.87;1.20;;;15.60;99.90;;;;;;5098871;27;20192;-53
2022/07/23 01:45:08;;;;;;;1.27;0.90;;;15.60;99.90;;;;;;5107867;27;20202;-55
2022/07/23 01:47:36;;;;;;;2.23;1.00;;;15.60;99.90;;;;;;5107542;27;20228;-47
2022/07/23 01:50:04;;;;;;;2.03;0.90;;;15.60;99.90;;;;;;5120147;27;20308;-51
2022/07/23 01:52:41;;;;;;;1.70;0.80;;;15.60;99.90;;;;;;5123694;27;20223;-48
2022/07/23 01:55:09;;;;;;;2.10;0.93;;;15.60;99.90;;;;;;5122298;27;20314;-55
2022/07/23 01:57:40;;;;;;;1.97;0.90;;;15.60;99.90;;;;;;5108791;27;20232;-48
2022/07/23 02:00:08;;;;;;;1.93;0.90;;;15.50;99.90;;;;;;5111267;27;20193;-54
2022/07/23 02:02:46;;;;;;;2.13;0.87;;;15.50;99.90;;;;;;5099576;27;20569;-48
2022/07/23 02:05:13;;;;;;;4.57;1.27;;;15.50;99.90;;;;;;5118244;27;20195;-52
2022/07/23 02:07:40;;;;;;;2.17;1.07;;;15.50;99.90;;;;;;5111933;27;20627;-53
2022/07/23 02:10:08;;;;;;;3.10;1.00;;;15.50;99.90;;;;;;5104434;28;20208;-54
2022/07/23 02:12:37;;;;;;;1.23;0.90;;;15.40;99.90;;;;;;5109398;27;20208;-55
2022/07/23 02:15:07;;;;;;;2.87;0.90;;;15.40;99.90;;;;;;5106001;27;20240;-55
2022/07/23 02:17:35;;;;;;;1.30;1.20;;;15.40;99.90;;;;;;5101120;27;20363;-55
2022/07/23 02:20:02;;;;;;;1.23;0.90;;;15.40;99.90;;;;;;5123082;27;20228;-52
2022/07/23 02:22:29;;;;;;;1.87;1.03;;;15.40;99.90;;;;;;5122350;27;20296;-49
2022/07/23 02:24:56;;;;;;;5.07;1.33;;;15.40;99.90;;;;;;5124931;27;20639;-51
2022/07/23 02:27:23;;;;;;;2.67;1.47;;;15.40;99.90;;;;;;5121006;27;20219;-49
2022/07/23 02:29:50;;;;;;;2.53;1.00;;;15.40;99.90;;;;;;5106116;27;20284;-49
2022/07/23 02:32:18;;;;;;;2.77;1.13;;;15.40;99.90;;;;;;5105213;27;20658;-54
2022/07/23 02:34:45;;;;;;;1.33;1.00;;;15.40;99.90;;;;;;5097786;27;20213;-51
2022/07/23 02:37:12;;;;;;;1.90;1.13;;;15.40;99.90;;;;;;5106974;27;20228;-54
2022/07/23 02:39:39;;;;;;;1.90;0.90;;;15.40;99.90;;;;;;5112910;27;20945;-49
2022/07/23 02:42:06;;;;;;;3.23;1.00;;;15.30;99.90;;;;;;5102866;27;20213;-55
2022/07/23 02:44:34;;;;;;;2.83;1.00;;;15.30;99.90;;;;;;5094748;27;20193;-54
2022/07/23 02:47:02;;;;;;;1.20;1.10;;;15.30;99.90;;;;;;5107237;27;20552;-55
2022/07/23 02:49:30;;;;;;;2.90;1.10;;;15.30;99.90;;;;;;5098197;27;20235;-50
2022/07/23 02:51:58;;;;;;;1.20;0.70;;;15.40;99.90;;;;;;5121860;27;20230;-49
2022/07/23 02:54:24;;;;;;;1.00;0.90;;;15.40;99.90;;;;;;5119022;27;20308;-51
2022/07/23 02:56:52;;;;;;;2.43;0.93;;;15.40;99.90;;;;;;5123557;27;20220;-52
2022/07/23 02:59:19;;;;;;;1.67;0.80;;;15.40;99.90;;;;;;5105373;27;22758;-55
2022/07/23 03:01:47;;;;;;;2.03;1.10;;;15.40;99.90;;;;;;5116803;27;20250;-51
2022/07/23 03:04:14;;;;;;;2.67;1.07;;;15.40;99.90;;;;;;5097360;27;20210;-55
2022/07/23 03:06:44;;;;;;;4.10;1.13;;;15.40;99.90;;;;;;5113115;27;20220;-53
2022/07/23 03:09:11;;;;;;;1.53;0.90;;;15.40;99.90;;;;;;5105822;27;20197;-55
2022/07/23 03:11:39;;;;;;;2.70;1.23;;;15.50;99.90;;;;;;5105863;27;20212;-50
2022/07/23 03:14:07;;;;;;;1.83;1.03;;;15.50;99.90;;;;;;5103747;27;20188;-54
2022/07/23 03:16:36;;;;;;;1.77;1.10;;;15.50;99.90;;;;;;5112056;27;20224;-52
2022/07/23 03:19:03;;;;;;;2.33;0.90;;;15.50;99.90;;;;;;5104861;27;20219;-52
2022/07/23 03:21:30;;;;;;;1.20;1.10;;;15.50;99.90;;;;;;5108807;27;20277;-51
2022/07/23 03:23:58;;;;;;;1.83;0.97;;;15.50;99.90;;;;;;5122533;27;20627;-49
2022/07/23 03:26:25;;;;;;;3.53;1.20;;;15.50;99.90;;;;;;5118602;27;20216;-50
2022/07/23 03:28:53;;;;;;;1.43;0.90;;;15.50;99.90;;;;;;5122998;27;20200;-50
2022/07/23 03:31:20;;;;;;;3.07;1.00;;;15.50;99.90;;;;;;5099858;27;21054;-51
2022/07/23 03:33:47;;;;;;;0.93;0.83;;;15.50;99.90;;;;;;5109104;27;20209;-54
2022/07/23 03:36:14;;;;;;;0.97;0.80;;;15.50;99.90;;;;;;5102838;27;20277;-54
2022/07/23 03:38:43;;;;;;;1.53;0.90;;;15.50;99.90;;;;;;5122419;27;20223;-56
2022/07/23 03:41:11;;;;;;;2.53;1.20;;;15.50;99.90;;;;;;5114935;27;20194;-54
2022/07/23 03:43:38;;;;;;;2.03;1.30;;;15.60;99.90;;;;;;5112694;27;20217;-53
2022/07/23 03:46:05;;;;;;;1.17;1.07;;;15.50;99.90;;;;;;5092857;27;20716;-53
2022/07/23 03:48:32;;;;;;;4.57;1.17;;;15.50;99.90;;;;;;5109776;27;20278;-54
2022/07/23 03:50:59;;;;;;;2.00;1.20;;;15.50;99.90;;;;;;5105314;28;20197;-50
2022/07/23 03:53:27;;;;;;;2.63;1.00;;;15.50;99.90;;;;;;5112388;27;20189;-56
2022/07/23 03:55:53;;;;;;;3.70;1.10;;;15.50;99.90;;;;;;5122208;27;20228;-51
2022/07/23 03:58:22;;;;;;;2.40;1.20;;;15.50;99.90;;;;;;5118562;28;20192;-54
2022/07/23 04:00:49;;;;;;;3.93;1.20;;;15.50;99.90;;;;;;5117429;28;20296;-51
2022/07/23 04:03:16;;;;;;;2.77;1.40;;;15.50;99.90;;;;;;5094187;27;20834;-55
2022/07/23 04:05:43;;;;;;;2.37;1.30;;;15.70;99.90;;;;;;5102801;28;20236;-53
2022/07/23 04:08:13;;;;;;;2.95;1.20;;;15.60;99.90;;;;;;5085844;28;23042;-52
2022/07/23 04:10:48;;;;;;;1.58;1.42;;;15.80;99.90;;;;;;5114490;28;20431;-55
2022/07/23 04:13:14;;;;;;;3.20;1.23;;;16.00;99.90;;;;;;5101952;28;20442;-52
2022/07/23 04:15:43;;;;;;;2.10;1.07;;;16.20;99.90;;;;;;5110178;28;20217;-54
2022/07/23 04:18:10;;;;;;;2.50;1.20;;;16.10;99.90;;;;;;5093596;27;21083;-50
2022/07/23 04:20:52;;;;;;;2.17;1.20;;;16.10;99.90;;;;;;5113026;27;20936;-55
2022/07/23 04:23:19;;;;;;;2.40;1.20;;;16.40;99.90;;;;;;5101688;27;20926;-52
2022/07/23 04:25:46;;;;;;;2.38;1.55;;;16.50;99.90;;;;;;5124110;27;20521;-56
2022/07/23 04:28:13;;;;;;;2.45;1.13;;;16.40;99.90;;;;;;5123386;27;20512;-52
2022/07/23 04:30:42;;;;;;;2.50;1.20;;;16.60;99.90;;;;;;5115293;27;20824;-52
2022/07/23 04:33:12;;;;;;;2.00;0.80;;;16.80;99.90;;;;;;5108071;27;20445;-54
2022/07/23 04:35:39;;;;;;;3.03;0.80;;;16.80;99.90;;;;;;5111877;27;20313;-55
2022/07/23 04:38:14;;;;;;;2.70;1.40;;;16.60;99.90;;;;;;5098151;27;20435;-54
2022/07/23 04:40:41;;;;;;;1.07;0.70;;;16.60;99.90;;;;;;5117974;27;20196;-52
2022/07/23 04:43:08;;;;;;;1.67;0.77;;;16.50;99.90;;;;;;5112853;27;20265;-52
2022/07/23 04:45:43;;;;;;;2.15;1.05;;;16.30;99.90;;;;;;5104312;27;20510;-56
2022/07/23 04:48:11;;;;;;;2.63;0.93;;;16.40;99.90;;;;;;5099925;27;20466;-53
2022/07/23 04:50:38;;;;;;;1.77;1.25;;;16.50;99.90;;;;;;5108062;27;20439;-53
2022/07/23 04:53:06;;;;;;;1.65;1.20;;;16.30;99.90;;;;;;5097043;27;21336;-53
2022/07/23 04:55:33;;;;;;;2.78;1.23;;;16.30;99.90;;;;;;5118770;27;20467;-50
2022/07/23 04:58:00;;;;;;;2.17;1.10;;;16.50;99.90;;;;;;5115175;27;23229;-50
2022/07/23 05:00:27;;;;;;;1.67;1.00;;;16.40;99.90;;;;;;5119817;27;20208;-56
2022/07/23 05:02:54;;;;;;;1.07;0.90;;;16.20;99.90;;;;;;5108345;27;20277;-54
2022/07/23 05:05:22;;;;;;;2.37;0.93;;;16.00;99.90;;;;;;5109601;27;20283;-56
2022/07/23 05:07:50;;;;;;;1.48;1.00;;;15.90;99.90;;;;;;5099429;27;20946;-55
2022/07/23 05:10:18;;;;;;;0.97;0.83;;;15.80;99.90;;;;;;5112355;27;20209;-52
2022/07/23 05:12:45;;;;;;;1.00;0.90;;;15.70;99.90;;;;;;5111643;27;20220;-54
2022/07/23 05:15:11;;;;;;;1.13;0.70;;;15.70;99.90;;;;;;5103058;27;20221;-55
2022/07/23 05:17:38;;;;;;;3.20;0.77;;;15.60;99.90;;;;;;5103347;27;20232;-53
2022/07/23 05:20:13;;;;;;;1.30;1.10;;;15.60;99.90;;;;;;5111201;27;20200;-49
2022/07/23 05:22:42;;;;;;;2.03;0.90;;;15.60;99.90;;;;;;5102799;27;20205;-55
2022/07/23 05:25:09;;;;;;;0.73;0.73;;;15.60;99.90;;;;;;5110450;27;20193;-54
2022/07/23 05:27:37;;;;;;;1.27;0.70;;;15.60;99.90;;;;;;5112282;27;20725;-51
2022/07/23 05:30:04;;;;;;;2.67;0.70;;;15.70;99.90;;;;;;5121458;27;20189;-54
2022/07/23 05:32:36;;;;;;;1.45;0.80;;;15.70;99.90;;;;;;5126110;27;20452;-54
2022/07/23 05:35:13;;;;;;;0.80;0.43;;;15.80;99.90;;;;;;5102723;27;20237;-55
2022/07/23 05:37:46;;;;;;;1.53;0.60;;;15.80;99.90;;;;;;5104177;27;20308;-56
2022/07/23 05:40:14;;;;;;;0.65;0.60;;;15.70;99.90;;;;;;5099117;27;20446;-52
2022/07/23 05:42:41;;;;;;;2.30;1.17;;;16.00;99.90;;;;;;5109774;27;20209;-56
2022/07/23 05:45:10;;;;;;;2.93;0.83;;;15.90;99.90;;;;;;5102252;27;20196;-56
2022/07/23 05:47:43;;;;;;;0.63;0.40;;;15.90;99.90;;;;;;5101925;27;20233;-52
2022/07/23 05:50:11;;;;;;;0.80;0.50;;;15.90;99.90;;;;;;5102658;27;20465;-54
2022/07/23 05:52:44;;;;;;;1.33;0.60;;;15.90;99.90;;;;;;5108793;27;20197;-54
2022/07/23 05:55:31;;;;;;;0.50;0.50;;;15.90;99.90;;;;;;5105607;27;20222;-55
2022/07/23 05:57:59;;;;;;;1.88;0.82;;;15.90;99.90;;;;;;5100775;27;20432;-53
2022/07/23 06:00:28;;;;;;;2.63;0.53;;;16.20;99.90;;;;;;5124634;27;20209;-51
2022/07/23 06:02:55;;;;;;;0.63;0.60;;;16.00;99.90;;;;;;5120873;27;20247;-53
2022/07/23 06:05:23;;;;;;;1.75;0.70;;;16.00;99.90;;;;;;5106209;27;20408;-52
2022/07/23 06:07:50;;;;;;;2.30;0.97;;;16.00;99.90;;;;;;5109132;27;20571;-54
2022/07/23 06:10:17;;;;;;;1.27;0.60;;;16.00;99.90;;;;;;5109096;27;20204;-53
2022/07/23 06:12:46;;;;;;;1.67;0.60;;;16.00;99.90;;;;;;5099169;27;20665;-54
2022/07/23 06:15:13;;;;;;;1.10;0.70;;;16.00;99.90;;;;;;5110856;27;20199;-53
2022/07/23 06:17:40;;;;;;;2.23;0.50;;;16.10;99.90;;;;;;5103701;27;20213;-55
2022/07/23 06:20:09;;;;;;;1.50;0.85;;;16.10;99.90;;;;;;5105516;27;20429;-55
2022/07/23 06:22:38;;;;;;;2.37;0.70;;;16.30;99.90;;;;;;5103461;27;20507;-54
2022/07/23 06:25:07;;;;;;;3.27;1.37;;;16.50;99.90;;;;;;5107622;27;20455;-52
2022/07/23 06:27:34;;;;;;;2.47;0.77;;;16.30;99.90;;;;;;5103262;27;20248;-54
2022/07/23 06:30:02;;;;;;;1.23;0.70;;;16.20;99.90;;;;;;5109788;27;20489;-53
2022/07/23 06:32:28;;;;;;;1.53;0.90;;;16.60;99.90;;;;;;5116427;27;20191;-54
2022/07/23 06:34:56;;;;;;;2.78;1.02;;;16.40;99.90;;;;;;5117681;27;20493;-51
2022/07/23 06:37:23;;;;;;;2.40;0.90;;;16.50;99.90;;;;;;5094035;27;21206;-55
2022/07/23 06:39:50;;;;;;;1.10;0.80;;;16.70;99.90;;;;;;5115459;27;20859;-55
2022/07/23 06:42:17;;;;;;;1.50;0.70;;;16.90;99.90;;;;;;5108686;27;20429;-56
2022/07/23 06:44:45;;;;;;;2.15;0.80;;;16.90;99.90;;;;;;5105414;27;20944;-52
2022/07/23 06:47:17;;;;;;;0.80;0.60;;;17.10;99.90;;;;;;5116178;27;20422;-54
2022/07/23 06:49:43;;;;;;;1.37;0.80;;;17.30;99.90;;;;;;5104469;27;20909;-53
2022/07/23 06:52:10;;;;;;;1.48;0.70;;;17.20;99.90;;;;;;5097094;27;20436;-54
2022/07/23 06:54:37;;;;;;;1.38;0.90;;;17.20;99.90;;;;;;5109496;27;20435;-56
2022/07/23 06:57:04;;;;;;;2.15;0.80;;;17.30;99.90;;;;;;5122384;27;20433;-54
2022/07/23 06:59:31;;;;;;;0.90;0.60;;;17.40;99.90;;;;;;5091191;27;21619;-57
2022/07/23 07:01:59;;;;;;;1.80;0.70;;;17.30;99.90;;;;;;5112814;27;20257;-52
2022/07/23 07:04:27;;;;;;;1.10;0.90;;;17.00;99.90;;;;;;5097589;27;21220;-56
2022/07/23 07:06:54;;;;;;;3.08;0.90;;;17.20;99.90;;;;;;5101330;27;20517;-55
2022/07/23 07:09:21;;;;;;;1.17;0.70;;;17.20;99.90;;;;;;5105720;27;20284;-56
2022/07/23 07:11:48;;;;;;;1.65;0.80;;;17.00;99.90;;;;;;5108851;27;20438;-52
2022/07/23 07:14:15;;;;;;;1.42;0.60;;;17.30;99.90;;;;;;5105781;27;20436;-56
2022/07/23 07:16:42;;;;;;;1.63;0.53;;;17.00;99.90;;;;;;5101447;27;20224;-57
2022/07/23 07:19:09;;;;;;;1.47;0.87;;;16.80;99.90;;;;;;5116482;27;20825;-57
2022/07/23 07:21:37;;;;;;;1.13;0.60;;;16.60;99.90;;;;;;5112537;27;20432;-53
2022/07/23 07:24:06;;;;;;;2.67;0.60;;;16.60;99.90;;;;;;5105749;27;20774;-53
2022/07/23 07:26:33;;;;;;;1.05;0.65;;;16.90;99.90;;;;;;5099607;27;20431;-53
2022/07/23 07:29:01;;;;;;;1.37;0.60;;;17.10;99.90;;;;;;5106588;27;20679;-55
2022/07/23 07:31:27;;;;;;;2.20;0.67;;;16.90;99.90;;;;;;5094106;27;20216;-53
2022/07/23 07:33:56;;;;;;;1.17;0.70;;;16.80;99.90;;;;;;5116689;27;20439;-53
2022/07/23 07:36:23;;;;;;;1.33;0.55;;;17.10;99.90;;;;;;5115350;27;20474;-54
2022/07/23 07:38:51;;;;;;;1.00;0.90;;;17.10;99.90;;;;;;5100159;27;20797;-58
2022/07/23 07:41:22;;;;;;;1.43;0.60;;;17.10;99.90;;;;;;5104848;27;20197;-52
2022/07/23 07:43:49;;;;;;;2.50;0.73;;;16.80;99.90;;;;;;5109584;27;21046;-54
2022/07/23 07:46:15;;;;;;;1.47;0.50;;;16.80;99.90;;;;;;5103411;27;20219;-55
2022/07/23 07:48:42;;;;;;;1.10;0.57;;;16.80;99.90;;;;;;5103660;28;20973;-53
2022/07/23 07:51:10;;;;;;;1.02;0.68;;;17.10;99.90;;;;;;5109778;27;20486;-54
2022/07/23 07:53:36;;;;;;;2.72;0.70;;;17.40;99.90;;;;;;5094651;27;20425;-56
2022/07/23 07:56:05;;;;;;;1.40;0.70;;;17.50;99.90;;;;;;5114921;27;20443;-53
2022/07/23 07:58:32;;;;;;;0.90;0.60;;;17.50;99.90;;;;;;5099647;27;20426;-56
2022/07/23 08:01:00;;;;;;;3.15;0.70;;;17.60;99.90;;;;;;5105065;28;20427;-54
2022/07/23 08:03:27;;;;;;;0.90;0.70;;;17.70;99.90;;;;;;5104893;28;20421;-52
2022/07/23 08:05:54;;;;;;;2.23;0.80;;;17.80;99.90;;;;;;5119167;27;20798;-54
2022/07/23 08:08:21;;;;;;;1.73;0.65;;;17.80;99.90;;;;;;5110055;28;20443;-54
2022/07/23 08:10:48;;;;;;;2.15;0.60;;;18.00;99.90;;;;;;5101156;28;20430;-54
2022/07/23 08:13:17;;;;;;;0.50;0.50;;;18.10;99.90;;;;;;5101097;27;20242;-56
2022/07/23 08:15:45;;;;;;;2.10;0.53;;;17.80;99.90;;;;;;5108331;28;20220;-56
2022/07/23 08:18:11;;;;;;;1.95;0.60;;;17.60;99.90;;;;;;5107562;27;20445;-53
2022/07/23 08:20:40;;;;;;;2.00;0.70;;;17.80;99.90;;;;;;5112583;27;20191;-56
2022/07/23 08:23:08;;;;;;;1.30;1.00;;;17.50;99.90;;;;;;5114901;28;20439;-56
2022/07/23 08:25:37;;;;;;;1.07;0.70;;;17.60;99.90;;;;;;5091948;28;20419;-55
2022/07/23 08:28:05;;;;;;;1.35;0.60;;;17.90;99.90;;;;;;5111531;28;20456;-56
2022/07/23 08:30:36;;;;;;;1.60;0.65;;;17.90;99.90;;;;;;5099698;28;20437;-57
2022/07/23 08:33:05;;;;;;;2.33;0.80;;;18.20;99.90;;;;;;5104030;28;20463;-57
2022/07/23 08:35:33;;;;;;;1.02;0.80;;;18.20;99.90;;;;;;5104219;28;20442;-55
2022/07/23 08:38:02;;;;;;;2.28;0.85;;;18.50;99.90;;;;;;5102741;28;20492;-57
2022/07/23 08:40:31;;;;;;;2.33;0.80;;;18.50;99.90;;;;;;5088736;28;20430;-57
2022/07/23 08:42:58;;;;;;;1.70;0.70;;;18.60;99.90;;;;;;5109079;28;20793;-53
2022/07/23 08:45:27;;;;;;;1.23;0.68;;;18.50;99.90;;;;;;5104076;28;20461;-55
2022/07/23 08:47:56;;;;;;;1.75;0.70;;;18.60;99.90;;;;;;5110866;28;20533;-49
2022/07/23 08:50:24;;;;;;;0.93;0.60;;;18.80;99.90;;;;;;5101129;28;21081;-55
2022/07/23 08:52:52;;;;;;;0.73;0.50;;;18.80;99.90;;;;;;5101737;28;20419;-55
2022/07/23 08:55:21;;;;;;;1.20;0.80;;;18.90;99.90;;;;;;5092655;28;20443;-58
2022/07/23 08:57:50;;;;;;;0.40;0.40;;;18.70;99.90;;;;;;5109788;28;20507;-57
2022/07/23 09:00:18;;;;;;;2.33;0.70;;;18.70;99.90;;;;;;5107481;28;20417;-57
2022/07/23 09:02:46;;;;;;;1.83;0.90;;;18.90;99.90;;;;;;5114611;27;20433;-56
2022/07/23 09:05:15;;;;;;;0.85;0.60;;;19.10;99.90;;;;;;5097523;27;20492;-57
2022/07/23 09:08:07;;;;;;;1.20;0.63;;;19.20;99.90;;;;;;5124205;27;20421;-53
2022/07/23 09:10:45;;;;;;;1.57;0.50;;;19.10;99.90;;;;;;5097695;27;20441;-57
2022/07/23 09:13:28;;;;;;;1.02;0.65;;;19.20;99.90;;;;;;5112343;27;20515;-57
2022/07/23 09:15:57;;;;;;;1.48;0.47;;;19.30;99.90;;;;;;5101653;27;20908;-56
2022/07/23 09:18:39;;;;;;;1.20;0.70;;;19.10;99.90;;;;;;5105009;27;21987;-56
2022/07/23 09:21:14;;;;;;;0.70;0.50;;;19.00;99.90;;;;;;5103051;27;20482;-56
2022/07/23 09:23:43;;;;;;;2.00;0.60;;;19.20;99.90;;;;;;5113752;27;20431;-55
2022/07/23 09:26:25;;;;;;;1.83;0.70;;;19.30;99.90;;;;;;5100149;27;20466;-54
2022/07/23 09:28:56;;;;;;;2.05;0.82;;;19.40;99.90;;;;;;5120417;27;20794;-55
2022/07/23 09:31:24;;;;;;;0.75;0.40;;;19.60;99.90;;;;;;5098947;27;20443;-56
2022/07/23 09:33:52;;;;;;;2.00;0.77;;;19.70;99.90;;;;;;5119079;27;20207;-55
2022/07/23 09:36:30;;;;;;;1.80;0.47;;;19.50;99.90;;;;;;5106917;27;20449;-55
2022/07/23 09:38:57;;;;;;;0.70;0.40;;;19.60;99.90;;;;;;5109374;27;20200;-57
2022/07/23 09:41:25;;;;;;;0.40;0.33;;;19.50;99.90;;;;;;5109705;27;20189;-53
2022/07/23 09:43:58;;;;;;;0.53;0.40;;;19.20;99.90;;;;;;5099338;27;20205;-55
2022/07/23 09:46:28;;;;;;;1.53;0.70;;;19.00;99.90;;;;;;5108942;27;20212;-53
2022/07/23 09:48:57;;;;;;;3.30;0.60;;;18.70;99.90;;;;;;5112038;27;20204;-55
2022/07/23 09:51:36;;;;;;;1.13;0.60;;;18.60;99.90;;;;;;5100725;27;20289;-56
2022/07/23 09:54:05;;;;;;;0.40;0.40;;;18.50;99.90;;;;;;5106111;27;20225;-54
2022/07/23 09:56:33;;;;;;;1.37;0.43;;;18.40;99.90;;;;;;5115422;27;20243;-54
2022/07/23 09:59:05;;;;;;;0.87;0.50;;;18.20;99.90;;;;;;5096885;27;20201;-55
2022/07/23 10:01:34;;;;;;;4.23;0.30;;;18.10;99.90;;;;;;5109871;27;20211;-52
2022/07/23 10:04:02;;;;;;;0.70;0.70;;;17.90;99.90;;;;;;5117121;27;20204;-56
2022/07/23 10:06:51;;;;;;;0.50;0.30;;;17.90;99.90;;;;;;5106989;27;20608;-52
2022/07/23 10:10:00;;;;;;;1.70;0.30;;;17.90;99.90;;;;;;5046178;28;20195;-53
2022/07/23 10:15:31;;;;;;;1.10;0.40;;;18.00;99.90;;;;;;5088852;27;20188;-54
2022/07/23 10:17:57;;;;;;;1.70;0.57;;;18.10;99.90;;;;;;5111579;27;20761;-54
2022/07/23 10:20:24;;;;;;;2.10;0.40;;;18.20;99.90;;;;;;5115623;27;20185;-52
2022/07/23 10:23:02;;;;;;;0.40;0.40;;;18.20;99.90;;;;;;5093517;27;20922;-52
2022/07/23 10:25:37;;;;;;;0.30;0.30;;;18.30;99.90;;;;;;5112138;27;20554;-52
2022/07/23 10:28:15;;;;;;;0.53;0.50;;;18.30;99.90;;;;;;5100764;27;20200;-56
2022/07/23 10:30:51;;;;;;;1.83;0.50;;;18.50;99.90;;;;;;5104600;27;20200;-56
2022/07/23 10:33:31;;;;;;;1.30;0.60;;;18.60;99.90;;;;;;5099327;27;20197;-55
2022/07/23 10:36:04;;;;;;;0.87;0.40;;;18.50;99.90;;;;;;5117068;27;20281;-57
2022/07/23 10:38:37;;;;;;;1.20;0.77;;;18.40;99.90;;;;;;5104293;27;20637;-56
2022/07/23 10:41:06;;;;;;;1.43;0.50;;;18.20;99.90;;;;;;5112443;27;20192;-53
2022/07/23 10:43:33;;;;;;;0.77;0.70;;;18.10;99.90;;;;;;5108457;27;20212;-56
2022/07/23 10:46:29;;;;;;;1.07;0.50;;;18.00;99.90;;;;;;5101127;27;20217;-57
2022/07/23 10:49:23;;;;;;;1.03;0.47;;;17.80;99.90;;;;;;5106270;27;20201;-54
2022/07/23 10:52:17;;;;;;;1.25;0.50;;;17.90;99.90;;;;;;5104356;27;20454;-52
2022/07/23 10:54:46;;;;;;;0.90;0.50;;;18.00;99.90;;;;;;5099923;27;20232;-52
2022/07/23 10:57:15;;;;;;;0.43;0.40;;;18.00;99.90;;;;;;5111815;27;20217;-52
2022/07/23 11:00:20;;;;;;;0.53;0.43;;;18.00;99.90;;;;;;5094808;27;20213;-53
2022/07/23 11:02:48;;;;;;;1.13;0.53;;;18.20;99.90;;;;;;5110795;27;20196;-55
2022/07/23 11:05:17;;;;;;;0.57;0.47;;;18.20;99.90;;;;;;5102905;27;20201;-52
2022/07/23 11:08:19;;;;;;;0.40;0.40;;;18.30;99.90;;;;;;5104628;27;20221;-50
2022/07/23 11:10:49;;;;;;;1.23;0.40;;;18.30;99.90;;;;;;5102246;27;20192;-55
2022/07/23 11:13:41;;;;;;;0.40;0.40;;;18.30;99.90;;;;;;5113127;27;20192;-52
2022/07/23 11:16:15;;;;;;;0.80;0.40;;;18.40;99.90;;;;;;5111095;27;20225;-54
2022/07/23 11:19:08;;;;;;;0.40;0.23;;;18.50;99.90;;;;;;5102932;27;20209;-55
2022/07/23 11:21:52;;;;;;;0.40;0.40;;;18.80;99.90;;;;;;5098615;27;20197;-53
2022/07/23 11:24:24;;;;;;;1.20;0.30;;;19.10;99.90;;;;;;5110558;27;20664;-50
2022/07/23 11:26:54;;;;;;;1.23;0.40;;;19.20;99.90;;;;;;5104836;27;20327;-52
2022/07/23 11:29:43;;;;;;;3.80;0.53;;;19.20;99.90;;;;;;5113600;27;20197;-49
2022/07/23 11:32:23;;;;;;;0.90;0.70;;;19.10;99.90;;;;;;5098703;27;20666;-49
2022/07/23 11:34:53;;;;;;;0.70;0.47;;;18.80;99.90;;;;;;5104970;27;20245;-49
2022/07/23 11:37:36;;;;;;;0.93;0.53;;;18.70;99.90;;;;;;5102618;27;20239;-55
2022/07/23 11:40:08;;;;;;;0.40;0.33;;;18.70;99.90;;;;;;5099478;27;20219;-51
2022/07/23 11:42:36;;;;;;;0.97;0.43;;;18.80;99.90;;;;;;5101708;27;20212;-56
2022/07/23 11:45:05;;;;;;;1.10;0.40;;;19.00;99.90;;;;;;5104117;27;20208;-55
2022/07/23 11:47:33;;;;;;;1.00;0.40;;;19.20;99.90;;;;;;5099952;27;20209;-54
2022/07/23 11:50:02;;;;;;;1.93;0.47;;;19.30;99.90;;;;;;5114935;27;20213;-53
2022/07/23 11:52:29;;;;;;;0.73;0.40;;;19.40;99.90;;;;;;5101522;28;20212;-50
2022/07/23 11:54:58;;;;;;;1.03;0.30;;;19.60;99.90;;;;;;5107077;27;20684;-53
2022/07/23 11:57:27;;;;;;;2.00;0.60;;;19.70;99.90;;;;;;5099804;27;20216;-54
2022/07/23 11:59:57;;;;;;;2.00;0.50;;;19.70;99.90;;;;;;5108514;28;20204;-52
2022/07/23 12:02:26;;;;;;;1.27;0.53;;;19.80;99.90;;;;;;5090377;28;20790;-50
2022/07/23 12:04:53;;;;;;;2.20;0.60;;;19.90;99.90;;;;;;5110192;28;20200;-50
2022/07/23 12:07:28;;;;;;;1.10;0.57;;;20.00;99.90;;;;;;5101262;28;20689;-53
2022/07/23 12:09:57;;;;;;;3.27;0.70;;;19.80;99.90;;;;;;5104706;27;20201;-55
2022/07/23 12:12:24;;;;;;;1.20;0.50;;;19.90;99.90;;;;;;5104329;28;20764;-53
2022/07/23 12:14:53;;;;;;;1.13;0.60;;;20.00;99.90;;;;;;5115886;28;20204;-49
2022/07/23 12:17:21;;;;;;;1.87;0.60;;;20.00;99.90;;;;;;5095039;28;20229;-53
2022/07/23 12:19:50;;;;;;;1.43;0.50;;;20.10;99.90;;;;;;5115374;28;20198;-54
2022/07/23 12:22:17;;;;;;;0.60;0.60;;;20.00;99.90;;;;;;5098695;28;20657;-52
2022/07/23 12:24:57;;;;;;;1.00;0.50;;;19.90;99.90;;;;;;5102744;27;20201;-53
2022/07/23 12:27:24;;;;;;;0.43;0.43;;;20.10;99.90;;;;;;5101384;28;20204;-52
2022/07/23 12:29:51;;;;;;;1.37;0.50;;;20.10;99.90;;;;;;5123908;27;20201;-51
2022/07/23 12:32:20;;;;;;;0.30;0.30;;;20.10;99.80;;;;;;5090456;27;20204;-54
2022/07/23 12:34:51;;;;;;;1.53;0.50;;;20.20;99.70;;;;;;5102589;28;20223;-52
2022/07/23 12:37:31;;;;;;;1.23;0.50;;;20.30;98.90;;;;;;5105926;27;20236;-52
2022/07/23 12:39:58;;;;;;;0.63;0.33;;;20.50;98.90;;;;;;5104389;27;20220;-49
2022/07/23 12:42:25;;;;;;;1.43;0.40;;;20.60;98.60;;;;;;5118549;27;20201;-49
2022/07/23 12:45:11;;;;;;;0.70;0.50;;;20.70;98.20;;;;;;5103030;27;20213;-51
2022/07/23 12:48:08;;;;;;;0.90;0.37;;;21.20;97.40;;;;;;5104721;27;20297;-51
2022/07/23 12:50:42;;;;;;;1.83;0.20;;;21.10;96.10;;;;;;5027623;28;20400;-55
2022/07/23 12:53:11;;;;;;;0.23;0.23;;;21.00;96.30;;;;;;5086584;27;20271;-56
2022/07/23 12:55:38;;;;;;;0.83;0.37;;;20.80;96.90;;;;;;5101794;27;20257;-52
2022/07/23 12:58:13;;;;;;;1.13;0.30;;;20.80;97.20;;;;;;5119001;27;20939;-53
2022/07/23 13:00:55;;;;;;;0.77;0.30;;;20.80;96.60;;;;;;5115311;27;20204;-51
2022/07/23 13:03:24;;;;;;;1.07;0.50;;;20.50;96.80;;;;;;5098481;27;20189;-49
2022/07/23 13:05:52;;;;;;;0.60;0.43;;;20.30;97.60;;;;;;5109463;27;20228;-55